sensor_id;sensor_type;location;lat;lon;timestamp;P1;durP1;ratioP1;P2;durP2;ratioP2
11386;SDS011;5748;53.102;8.456;2023-05-10T00:00:43;2.10;;;2.00;;
11386;SDS011;5748;53.102;8.456;2023-05-10T00:03:10;1.93;;;1.83;;
11386;SDS011;5748;53.102;8.456;2023-05-10T00:05:37;2.00;;;1.80;;
11386;SDS011;5748;53.102;8.456;2023-05-10T00:10:56;2.27;;;2.07;;
11386;SDS011;5748;53.102;8.456;2023-05-10T00:13:31;1.80;;;1.70;;
11386;SDS011;5748;53.102;8.456;2023-05-10T00:15:58;2.20;;;2.00;;
11386;SDS011;5748;53.102;8.456;2023-05-10T00:18:25;2.20;;;2.10;;
11386;SDS011;5748;53.102;8.456;2023-05-10T00:20:53;2.27;;;2.10;;
11386;SDS011;5748;53.102;8.456;2023-05-10T00:23:20;2.40;;;2.20;;
11386;SDS011;5748;53.102;8.456;2023-05-10T00:25:48;2.00;;;1.90;;
11386;SDS011;5748;53.102;8.456;2023-05-10T00:28:27;2.40;;;2.20;;
11386;SDS011;5748;53.102;8.456;2023-05-10T00:30:54;2.70;;;2.50;;
11386;SDS011;5748;53.102;8.456;2023-05-10T00:33:22;2.23;;;2.03;;
11386;SDS011;5748;53.102;8.456;2023-05-10T00:35:49;2.60;;;2.40;;
11386;SDS011;5748;53.102;8.456;2023-05-10T00:38:16;2.50;;;2.30;;
11386;SDS011;5748;53.102;8.456;2023-05-10T00:40:43;3.80;;;2.60;;
11386;SDS011;5748;53.102;8.456;2023-05-10T00:43:15;2.67;;;2.47;;
11386;SDS011;5748;53.102;8.456;2023-05-10T00:45:42;2.57;;;2.37;;
11386;SDS011;5748;53.102;8.456;2023-05-10T00:48:10;2.60;;;2.40;;
11386;SDS011;5748;53.102;8.456;2023-05-10T00:50:37;2.43;;;2.23;;
11386;SDS011;5748;53.102;8.456;2023-05-10T00:53:05;2.77;;;2.57;;
11386;SDS011;5748;53.102;8.456;2023-05-10T00:55:40;2.63;;;2.43;;
11386;SDS011;5748;53.102;8.456;2023-05-10T00:58:07;2.90;;;2.70;;
11386;SDS011;5748;53.102;8.456;2023-05-10T01:00:35;2.57;;;2.37;;
11386;SDS011;5748;53.102;8.456;2023-05-10T01:03:05;2.80;;;2.60;;
11386;SDS011;5748;53.102;8.456;2023-05-10T01:05:32;2.63;;;2.43;;
11386;SDS011;5748;53.102;8.456;2023-05-10T01:10:55;2.40;;;2.20;;
11386;SDS011;5748;53.102;8.456;2023-05-10T01:13:28;2.53;;;2.33;;
11386;SDS011;5748;53.102;8.456;2023-05-10T01:16:00;2.50;;;2.30;;
11386;SDS011;5748;53.102;8.456;2023-05-10T01:18:28;2.70;;;2.50;;
11386;SDS011;5748;53.102;8.456;2023-05-10T01:21:00;2.50;;;2.30;;
11386;SDS011;5748;53.102;8.456;2023-05-10T01:26:47;2.30;;;2.10;;
11386;SDS011;5748;53.102;8.456;2023-05-10T01:29:58;2.20;;;2.00;;
11386;SDS011;5748;53.102;8.456;2023-05-10T01:32:50;2.37;;;2.17;;
11386;SDS011;5748;53.102;8.456;2023-05-10T01:35:23;2.03;;;1.90;;
11386;SDS011;5748;53.102;8.456;2023-05-10T01:37:59;2.40;;;2.17;;
11386;SDS011;5748;53.102;8.456;2023-05-10T01:40:36;2.30;;;2.10;;
11386;SDS011;5748;53.102;8.456;2023-05-10T01:43:11;2.40;;;2.20;;
11386;SDS011;5748;53.102;8.456;2023-05-10T01:45:47;2.50;;;2.30;;
11386;SDS011;5748;53.102;8.456;2023-05-10T01:48:30;2.53;;;2.33;;
11386;SDS011;5748;53.102;8.456;2023-05-10T01:50:58;2.93;;;2.70;;
11386;SDS011;5748;53.102;8.456;2023-05-10T01:53:25;2.97;;;2.77;;
11386;SDS011;5748;53.102;8.456;2023-05-10T01:55:53;3.33;;;3.07;;
11386;SDS011;5748;53.102;8.456;2023-05-10T01:58:23;3.73;;;3.43;;
11386;SDS011;5748;53.102;8.456;2023-05-10T02:00:55;3.30;;;3.00;;
11386;SDS011;5748;53.102;8.456;2023-05-10T02:03:24;3.10;;;2.90;;
11386;SDS011;5748;53.102;8.456;2023-05-10T02:05:55;4.60;;;3.17;;
11386;SDS011;5748;53.102;8.456;2023-05-10T02:08:24;3.00;;;2.80;;
11386;SDS011;5748;53.102;8.456;2023-05-10T02:10:54;2.80;;;2.57;;
11386;SDS011;5748;53.102;8.456;2023-05-10T02:13:23;2.80;;;2.60;;
11386;SDS011;5748;53.102;8.456;2023-05-10T02:15:52;2.80;;;2.60;;
11386;SDS011;5748;53.102;8.456;2023-05-10T02:18:20;3.10;;;2.47;;
11386;SDS011;5748;53.102;8.456;2023-05-10T02:20:51;2.50;;;2.30;;
11386;SDS011;5748;53.102;8.456;2023-05-10T02:23:21;2.53;;;2.33;;
11386;SDS011;5748;53.102;8.456;2023-05-10T02:25:49;2.50;;;2.30;;
11386;SDS011;5748;53.102;8.456;2023-05-10T02:28:20;2.53;;;2.27;;
11386;SDS011;5748;53.102;8.456;2023-05-10T02:30:49;2.47;;;2.27;;
11386;SDS011;5748;53.102;8.456;2023-05-10T02:33:17;3.07;;;1.93;;
11386;SDS011;5748;53.102;8.456;2023-05-10T02:35:46;2.57;;;2.10;;
11386;SDS011;5748;53.102;8.456;2023-05-10T02:38:16;2.43;;;1.90;;
11386;SDS011;5748;53.102;8.456;2023-05-10T02:40:46;2.10;;;1.90;;
11386;SDS011;5748;53.102;8.456;2023-05-10T02:43:15;1.93;;;1.83;;
11386;SDS011;5748;53.102;8.456;2023-05-10T02:45:46;2.03;;;1.93;;
11386;SDS011;5748;53.102;8.456;2023-05-10T02:48:26;2.00;;;1.80;;
11386;SDS011;5748;53.102;8.456;2023-05-10T02:50:54;2.20;;;2.00;;
11386;SDS011;5748;53.102;8.456;2023-05-10T02:53:30;2.20;;;2.07;;
11386;SDS011;5748;53.102;8.456;2023-05-10T02:56:00;2.33;;;2.13;;
11386;SDS011;5748;53.102;8.456;2023-05-10T02:58:39;2.17;;;1.80;;
11386;SDS011;5748;53.102;8.456;2023-05-10T03:01:06;2.00;;;1.80;;
11386;SDS011;5748;53.102;8.456;2023-05-10T03:03:33;2.33;;;1.87;;
11386;SDS011;5748;53.102;8.456;2023-05-10T03:06:00;1.97;;;1.87;;
11386;SDS011;5748;53.102;8.456;2023-05-10T03:11:28;2.00;;;1.90;;
11386;SDS011;5748;53.102;8.456;2023-05-10T03:14:13;1.87;;;1.77;;
11386;SDS011;5748;53.102;8.456;2023-05-10T03:16:56;1.83;;;1.73;;
11386;SDS011;5748;53.102;8.456;2023-05-10T03:19:35;2.17;;;1.90;;
11386;SDS011;5748;53.102;8.456;2023-05-10T03:22:10;2.30;;;2.10;;
11386;SDS011;5748;53.102;8.456;2023-05-10T03:24:51;2.00;;;1.90;;
11386;SDS011;5748;53.102;8.456;2023-05-10T03:27:22;2.27;;;2.03;;
11386;SDS011;5748;53.102;8.456;2023-05-10T03:29:51;1.97;;;1.87;;
11386;SDS011;5748;53.102;8.456;2023-05-10T03:32:20;2.20;;;2.00;;
11386;SDS011;5748;53.102;8.456;2023-05-10T03:34:47;2.13;;;1.93;;
11386;SDS011;5748;53.102;8.456;2023-05-10T03:37:14;2.60;;;1.90;;
11386;SDS011;5748;53.102;8.456;2023-05-10T03:39:41;1.80;;;1.70;;
11386;SDS011;5748;53.102;8.456;2023-05-10T03:42:09;2.20;;;2.00;;
11386;SDS011;5748;53.102;8.456;2023-05-10T03:44:37;2.57;;;2.10;;
11386;SDS011;5748;53.102;8.456;2023-05-10T03:47:04;1.93;;;1.83;;
11386;SDS011;5748;53.102;8.456;2023-05-10T03:49:31;2.00;;;1.90;;
11386;SDS011;5748;53.102;8.456;2023-05-10T03:51:58;2.10;;;1.90;;
11386;SDS011;5748;53.102;8.456;2023-05-10T03:54:26;2.23;;;2.10;;
11386;SDS011;5748;53.102;8.456;2023-05-10T03:56:53;2.23;;;2.03;;
11386;SDS011;5748;53.102;8.456;2023-05-10T03:59:21;2.20;;;2.00;;
11386;SDS011;5748;53.102;8.456;2023-05-10T04:01:48;2.00;;;1.90;;
11386;SDS011;5748;53.102;8.456;2023-05-10T04:04:15;2.03;;;1.90;;
11386;SDS011;5748;53.102;8.456;2023-05-10T04:06:43;1.83;;;1.73;;
11386;SDS011;5748;53.102;8.456;2023-05-10T04:09:10;2.13;;;1.97;;
11386;SDS011;5748;53.102;8.456;2023-05-10T04:11:37;2.00;;;1.90;;
11386;SDS011;5748;53.102;8.456;2023-05-10T04:14:04;2.10;;;1.80;;
11386;SDS011;5748;53.102;8.456;2023-05-10T04:16:33;2.13;;;2.03;;
11386;SDS011;5748;53.102;8.456;2023-05-10T04:19:00;2.30;;;2.10;;
11386;SDS011;5748;53.102;8.456;2023-05-10T04:21:27;2.43;;;1.93;;
11386;SDS011;5748;53.102;8.456;2023-05-10T04:23:55;2.13;;;1.93;;
11386;SDS011;5748;53.102;8.456;2023-05-10T04:26:22;2.00;;;1.87;;
11386;SDS011;5748;53.102;8.456;2023-05-10T04:28:50;2.10;;;2.00;;
11386;SDS011;5748;53.102;8.456;2023-05-10T04:31:19;2.23;;;2.03;;
11386;SDS011;5748;53.102;8.456;2023-05-10T04:33:47;2.50;;;2.30;;
11386;SDS011;5748;53.102;8.456;2023-05-10T04:36:14;2.27;;;2.07;;
11386;SDS011;5748;53.102;8.456;2023-05-10T04:38:41;2.40;;;2.20;;
11386;SDS011;5748;53.102;8.456;2023-05-10T04:41:10;2.27;;;2.07;;
11386;SDS011;5748;53.102;8.456;2023-05-10T04:43:37;2.30;;;2.10;;
11386;SDS011;5748;53.102;8.456;2023-05-10T04:46:04;2.30;;;2.10;;
11386;SDS011;5748;53.102;8.456;2023-05-10T04:48:32;2.37;;;2.17;;
11386;SDS011;5748;53.102;8.456;2023-05-10T04:51:01;2.07;;;1.93;;
11386;SDS011;5748;53.102;8.456;2023-05-10T04:53:29;2.40;;;2.20;;
11386;SDS011;5748;53.102;8.456;2023-05-10T04:55:57;2.27;;;2.10;;
11386;SDS011;5748;53.102;8.456;2023-05-10T04:58:24;2.40;;;2.20;;
11386;SDS011;5748;53.102;8.456;2023-05-10T05:00:51;2.37;;;2.17;;
11386;SDS011;5748;53.102;8.456;2023-05-10T05:03:18;2.20;;;2.10;;
11386;SDS011;5748;53.102;8.456;2023-05-10T05:05:53;2.10;;;1.90;;
11386;SDS011;5748;53.102;8.456;2023-05-10T05:08:21;2.37;;;2.17;;
11386;SDS011;5748;53.102;8.456;2023-05-10T05:10:48;2.30;;;2.10;;
11386;SDS011;5748;53.102;8.456;2023-05-10T05:13:16;2.07;;;1.93;;
11386;SDS011;5748;53.102;8.456;2023-05-10T05:15:51;2.43;;;2.23;;
11386;SDS011;5748;53.102;8.456;2023-05-10T05:18:18;2.57;;;2.13;;
11386;SDS011;5748;53.102;8.456;2023-05-10T05:20:45;2.50;;;2.30;;
11386;SDS011;5748;53.102;8.456;2023-05-10T05:23:12;2.70;;;2.43;;
11386;SDS011;5748;53.102;8.456;2023-05-10T05:25:41;2.27;;;2.07;;
11386;SDS011;5748;53.102;8.456;2023-05-10T05:28:08;2.10;;;2.00;;
11386;SDS011;5748;53.102;8.456;2023-05-10T05:30:35;2.40;;;2.20;;
11386;SDS011;5748;53.102;8.456;2023-05-10T05:33:02;2.43;;;2.23;;
11386;SDS011;5748;53.102;8.456;2023-05-10T05:35:29;2.03;;;1.93;;
11386;SDS011;5748;53.102;8.456;2023-05-10T05:37:56;2.30;;;2.10;;
11386;SDS011;5748;53.102;8.456;2023-05-10T05:40:24;2.00;;;1.90;;
11386;SDS011;5748;53.102;8.456;2023-05-10T05:42:52;2.13;;;1.93;;
11386;SDS011;5748;53.102;8.456;2023-05-10T05:45:19;1.70;;;1.60;;
11386;SDS011;5748;53.102;8.456;2023-05-10T05:47:46;1.80;;;1.70;;
11386;SDS011;5748;53.102;8.456;2023-05-10T05:50:13;1.23;;;1.13;;
11386;SDS011;5748;53.102;8.456;2023-05-10T05:52:41;1.30;;;1.20;;
11386;SDS011;5748;53.102;8.456;2023-05-10T05:55:08;1.40;;;1.30;;
11386;SDS011;5748;53.102;8.456;2023-05-10T05:57:35;1.43;;;1.33;;
11386;SDS011;5748;53.102;8.456;2023-05-10T06:00:06;1.10;;;1.00;;
11386;SDS011;5748;53.102;8.456;2023-05-10T06:02:35;1.10;;;1.10;;
11386;SDS011;5748;53.102;8.456;2023-05-10T06:05:03;0.80;;;0.80;;
11386;SDS011;5748;53.102;8.456;2023-05-10T06:07:32;0.90;;;0.90;;
11386;SDS011;5748;53.102;8.456;2023-05-10T06:10:01;1.13;;;1.00;;
11386;SDS011;5748;53.102;8.456;2023-05-10T06:12:28;0.70;;;0.70;;
11386;SDS011;5748;53.102;8.456;2023-05-10T06:14:56;0.70;;;0.70;;
11386;SDS011;5748;53.102;8.456;2023-05-10T06:17:25;0.70;;;0.70;;
11386;SDS011;5748;53.102;8.456;2023-05-10T06:19:52;0.90;;;0.90;;
11386;SDS011;5748;53.102;8.456;2023-05-10T06:22:19;0.87;;;0.83;;
11386;SDS011;5748;53.102;8.456;2023-05-10T06:24:47;0.80;;;0.80;;
11386;SDS011;5748;53.102;8.456;2023-05-10T06:27:14;0.93;;;0.93;;
11386;SDS011;5748;53.102;8.456;2023-05-10T06:29:42;0.90;;;0.90;;
11386;SDS011;5748;53.102;8.456;2023-05-10T06:32:10;0.70;;;0.70;;
11386;SDS011;5748;53.102;8.456;2023-05-10T06:34:38;0.90;;;0.90;;
11386;SDS011;5748;53.102;8.456;2023-05-10T06:37:05;0.80;;;0.80;;
11386;SDS011;5748;53.102;8.456;2023-05-10T06:39:32;0.80;;;0.80;;
11386;SDS011;5748;53.102;8.456;2023-05-10T06:41:59;0.80;;;0.80;;
11386;SDS011;5748;53.102;8.456;2023-05-10T06:44:26;1.23;;;0.90;;
11386;SDS011;5748;53.102;8.456;2023-05-10T06:46:53;1.13;;;1.07;;
11386;SDS011;5748;53.102;8.456;2023-05-10T06:49:21;1.30;;;1.20;;
11386;SDS011;5748;53.102;8.456;2023-05-10T06:51:50;1.00;;;1.00;;
11386;SDS011;5748;53.102;8.456;2023-05-10T06:54:17;1.20;;;1.10;;
11386;SDS011;5748;53.102;8.456;2023-05-10T06:56:45;1.20;;;1.10;;
11386;SDS011;5748;53.102;8.456;2023-05-10T06:59:11;1.10;;;1.00;;
11386;SDS011;5748;53.102;8.456;2023-05-10T07:01:41;1.30;;;1.20;;
11386;SDS011;5748;53.102;8.456;2023-05-10T07:04:08;1.20;;;1.10;;
11386;SDS011;5748;53.102;8.456;2023-05-10T07:06:35;1.03;;;1.03;;
11386;SDS011;5748;53.102;8.456;2023-05-10T07:09:04;1.30;;;1.20;;
11386;SDS011;5748;53.102;8.456;2023-05-10T07:11:32;1.03;;;1.03;;
11386;SDS011;5748;53.102;8.456;2023-05-10T07:14:00;1.27;;;1.17;;
11386;SDS011;5748;53.102;8.456;2023-05-10T07:16:27;1.10;;;1.10;;
11386;SDS011;5748;53.102;8.456;2023-05-10T07:18:54;1.10;;;1.07;;
11386;SDS011;5748;53.102;8.456;2023-05-10T07:21:31;1.17;;;1.17;;
11386;SDS011;5748;53.102;8.456;2023-05-10T07:23:58;1.30;;;1.20;;
11386;SDS011;5748;53.102;8.456;2023-05-10T07:26:27;1.40;;;1.30;;
11386;SDS011;5748;53.102;8.456;2023-05-10T07:28:54;1.30;;;1.20;;
11386;SDS011;5748;53.102;8.456;2023-05-10T07:31:21;1.00;;;1.00;;
11386;SDS011;5748;53.102;8.456;2023-05-10T07:33:48;1.20;;;1.10;;
11386;SDS011;5748;53.102;8.456;2023-05-10T07:36:15;1.40;;;1.30;;
11386;SDS011;5748;53.102;8.456;2023-05-10T07:38:42;1.10;;;1.10;;
11386;SDS011;5748;53.102;8.456;2023-05-10T07:41:10;1.50;;;1.40;;
11386;SDS011;5748;53.102;8.456;2023-05-10T07:43:39;1.40;;;1.30;;
11386;SDS011;5748;53.102;8.456;2023-05-10T07:46:06;1.30;;;1.20;;
11386;SDS011;5748;53.102;8.456;2023-05-10T07:48:35;1.27;;;1.17;;
11386;SDS011;5748;53.102;8.456;2023-05-10T07:51:02;1.50;;;1.40;;
11386;SDS011;5748;53.102;8.456;2023-05-10T07:53:31;1.10;;;1.07;;
11386;SDS011;5748;53.102;8.456;2023-05-10T07:55:58;1.20;;;1.10;;
11386;SDS011;5748;53.102;8.456;2023-05-10T07:58:26;1.40;;;1.30;;
11386;SDS011;5748;53.102;8.456;2023-05-10T08:00:54;0.97;;;0.97;;
11386;SDS011;5748;53.102;8.456;2023-05-10T08:03:21;0.90;;;0.90;;
11386;SDS011;5748;53.102;8.456;2023-05-10T08:05:49;1.13;;;1.10;;
11386;SDS011;5748;53.102;8.456;2023-05-10T08:08:17;0.90;;;0.90;;
11386;SDS011;5748;53.102;8.456;2023-05-10T08:10:45;0.97;;;0.97;;
11386;SDS011;5748;53.102;8.456;2023-05-10T08:13:11;1.10;;;1.00;;
11386;SDS011;5748;53.102;8.456;2023-05-10T08:15:39;1.10;;;1.00;;
11386;SDS011;5748;53.102;8.456;2023-05-10T08:18:07;0.80;;;0.80;;
11386;SDS011;5748;53.102;8.456;2023-05-10T08:20:34;0.80;;;0.80;;
11386;SDS011;5748;53.102;8.456;2023-05-10T08:23:01;0.90;;;0.90;;
11386;SDS011;5748;53.102;8.456;2023-05-10T08:25:28;0.70;;;0.70;;
11386;SDS011;5748;53.102;8.456;2023-05-10T08:27:55;0.77;;;0.77;;
11386;SDS011;5748;53.102;8.456;2023-05-10T08:30:22;0.90;;;0.90;;
11386;SDS011;5748;53.102;8.456;2023-05-10T08:32:49;0.80;;;0.80;;
11386;SDS011;5748;53.102;8.456;2023-05-10T08:35:18;0.70;;;0.70;;
11386;SDS011;5748;53.102;8.456;2023-05-10T08:37:44;0.70;;;0.70;;
11386;SDS011;5748;53.102;8.456;2023-05-10T08:40:12;0.70;;;0.70;;
11386;SDS011;5748;53.102;8.456;2023-05-10T08:42:40;0.70;;;0.70;;
11386;SDS011;5748;53.102;8.456;2023-05-10T08:45:16;0.73;;;0.73;;
11386;SDS011;5748;53.102;8.456;2023-05-10T08:47:46;1.03;;;0.93;;
11386;SDS011;5748;53.102;8.456;2023-05-10T08:50:14;0.70;;;0.70;;
11386;SDS011;5748;53.102;8.456;2023-05-10T08:52:43;1.33;;;0.80;;
11386;SDS011;5748;53.102;8.456;2023-05-10T08:55:14;0.80;;;0.80;;
11386;SDS011;5748;53.102;8.456;2023-05-10T08:57:42;0.90;;;0.90;;
11386;SDS011;5748;53.102;8.456;2023-05-10T09:00:09;0.80;;;0.80;;
11386;SDS011;5748;53.102;8.456;2023-05-10T09:02:38;0.70;;;0.70;;
11386;SDS011;5748;53.102;8.456;2023-05-10T09:05:05;0.70;;;0.70;;
11386;SDS011;5748;53.102;8.456;2023-05-10T09:07:36;0.70;;;0.70;;
11386;SDS011;5748;53.102;8.456;2023-05-10T09:10:04;0.73;;;0.73;;
11386;SDS011;5748;53.102;8.456;2023-05-10T09:12:32;0.80;;;0.80;;
11386;SDS011;5748;53.102;8.456;2023-05-10T09:15:00;0.80;;;0.80;;
11386;SDS011;5748;53.102;8.456;2023-05-10T09:17:28;0.90;;;0.90;;
11386;SDS011;5748;53.102;8.456;2023-05-10T09:19:58;0.83;;;0.83;;
11386;SDS011;5748;53.102;8.456;2023-05-10T09:22:27;0.80;;;0.80;;
11386;SDS011;5748;53.102;8.456;2023-05-10T09:25:05;1.17;;;0.70;;
11386;SDS011;5748;53.102;8.456;2023-05-10T09:27:34;0.87;;;0.87;;
11386;SDS011;5748;53.102;8.456;2023-05-10T09:30:01;0.93;;;0.93;;
11386;SDS011;5748;53.102;8.456;2023-05-10T09:32:37;0.80;;;0.80;;
11386;SDS011;5748;53.102;8.456;2023-05-10T09:35:06;0.90;;;0.80;;
11386;SDS011;5748;53.102;8.456;2023-05-10T09:37:35;0.80;;;0.80;;
11386;SDS011;5748;53.102;8.456;2023-05-10T09:40:07;0.83;;;0.83;;
11386;SDS011;5748;53.102;8.456;2023-05-10T09:42:38;0.97;;;0.97;;
11386;SDS011;5748;53.102;8.456;2023-05-10T09:45:08;0.97;;;0.97;;
11386;SDS011;5748;53.102;8.456;2023-05-10T09:47:35;0.80;;;0.80;;
11386;SDS011;5748;53.102;8.456;2023-05-10T09:50:03;1.13;;;1.03;;
11386;SDS011;5748;53.102;8.456;2023-05-10T09:52:31;1.13;;;1.03;;
11386;SDS011;5748;53.102;8.456;2023-05-10T09:55:16;0.90;;;0.90;;
11386;SDS011;5748;53.102;8.456;2023-05-10T09:57:44;0.70;;;0.70;;
11386;SDS011;5748;53.102;8.456;2023-05-10T10:00:16;0.77;;;0.77;;
11386;SDS011;5748;53.102;8.456;2023-05-10T10:02:45;0.80;;;0.80;;
11386;SDS011;5748;53.102;8.456;2023-05-10T10:05:14;0.93;;;0.93;;
11386;SDS011;5748;53.102;8.456;2023-05-10T10:07:41;1.00;;;1.00;;
11386;SDS011;5748;53.102;8.456;2023-05-10T10:10:09;0.97;;;0.90;;
11386;SDS011;5748;53.102;8.456;2023-05-10T10:12:39;1.00;;;1.00;;
11386;SDS011;5748;53.102;8.456;2023-05-10T10:15:07;0.90;;;0.90;;
11386;SDS011;5748;53.102;8.456;2023-05-10T10:17:35;0.80;;;0.80;;
11386;SDS011;5748;53.102;8.456;2023-05-10T10:20:04;0.67;;;0.67;;
11386;SDS011;5748;53.102;8.456;2023-05-10T10:25:11;0.93;;;0.80;;
11386;SDS011;5748;53.102;8.456;2023-05-10T10:27:44;1.00;;;0.87;;
11386;SDS011;5748;53.102;8.456;2023-05-10T10:30:21;0.70;;;0.70;;
11386;SDS011;5748;53.102;8.456;2023-05-10T10:33:06;0.70;;;0.70;;
11386;SDS011;5748;53.102;8.456;2023-05-10T10:35:50;0.80;;;0.80;;
11386;SDS011;5748;53.102;8.456;2023-05-10T10:38:20;0.70;;;0.70;;
11386;SDS011;5748;53.102;8.456;2023-05-10T10:40:47;1.17;;;0.90;;
11386;SDS011;5748;53.102;8.456;2023-05-10T10:43:25;0.60;;;0.60;;
11386;SDS011;5748;53.102;8.456;2023-05-10T10:48:39;0.67;;;0.67;;
11386;SDS011;5748;53.102;8.456;2023-05-10T10:51:07;0.70;;;0.70;;
11386;SDS011;5748;53.102;8.456;2023-05-10T10:53:34;0.83;;;0.80;;
11386;SDS011;5748;53.102;8.456;2023-05-10T10:56:06;0.60;;;0.60;;
11386;SDS011;5748;53.102;8.456;2023-05-10T10:58:36;0.40;;;0.40;;
11386;SDS011;5748;53.102;8.456;2023-05-10T11:01:11;0.30;;;0.30;;
11386;SDS011;5748;53.102;8.456;2023-05-10T11:06:45;0.30;;;0.30;;
11386;SDS011;5748;53.102;8.456;2023-05-10T11:11:51;0.33;;;0.30;;
11386;SDS011;5748;53.102;8.456;2023-05-10T11:14:23;0.40;;;0.40;;
11386;SDS011;5748;53.102;8.456;2023-05-10T11:19:22;0.30;;;0.30;;
11386;SDS011;5748;53.102;8.456;2023-05-10T11:27:33;0.30;;;0.30;;
11386;SDS011;5748;53.102;8.456;2023-05-10T11:30:06;0.20;;;0.20;;
11386;SDS011;5748;53.102;8.456;2023-05-10T11:32:34;0.20;;;0.20;;
11386;SDS011;5748;53.102;8.456;2023-05-10T11:38:12;0.20;;;0.20;;
11386;SDS011;5748;53.102;8.456;2023-05-10T11:40:40;0.20;;;0.20;;
11386;SDS011;5748;53.102;8.456;2023-05-10T11:43:09;0.23;;;0.20;;
11386;SDS011;5748;53.102;8.456;2023-05-10T11:45:40;0.20;;;0.20;;
11386;SDS011;5748;53.102;8.456;2023-05-10T11:48:07;0.20;;;0.20;;
11386;SDS011;5748;53.102;8.456;2023-05-10T11:50:41;0.23;;;0.23;;
11386;SDS011;5748;53.102;8.456;2023-05-10T11:53:19;0.23;;;0.23;;
11386;SDS011;5748;53.102;8.456;2023-05-10T11:56:03;0.20;;;0.20;;
11386;SDS011;5748;53.102;8.456;2023-05-10T11:58:31;0.30;;;0.30;;
11386;SDS011;5748;53.102;8.456;2023-05-10T12:01:00;0.30;;;0.30;;
11386;SDS011;5748;53.102;8.456;2023-05-10T12:03:40;0.40;;;0.40;;
11386;SDS011;5748;53.102;8.456;2023-05-10T12:06:07;0.50;;;0.50;;
11386;SDS011;5748;53.102;8.456;2023-05-10T12:08:35;0.60;;;0.60;;
11386;SDS011;5748;53.102;8.456;2023-05-10T12:11:06;0.70;;;0.70;;
11386;SDS011;5748;53.102;8.456;2023-05-10T12:13:37;0.70;;;0.70;;
11386;SDS011;5748;53.102;8.456;2023-05-10T12:16:17;0.57;;;0.57;;
11386;SDS011;5748;53.102;8.456;2023-05-10T12:18:45;0.70;;;0.70;;
11386;SDS011;5748;53.102;8.456;2023-05-10T12:21:16;0.87;;;0.87;;
11386;SDS011;5748;53.102;8.456;2023-05-10T12:23:45;0.80;;;0.80;;
11386;SDS011;5748;53.102;8.456;2023-05-10T12:26:13;2.27;;;1.30;;
11386;SDS011;5748;53.102;8.456;2023-05-10T12:28:41;1.47;;;1.30;;
11386;SDS011;5748;53.102;8.456;2023-05-10T12:31:08;1.30;;;1.20;;
11386;SDS011;5748;53.102;8.456;2023-05-10T12:33:37;1.20;;;1.10;;
11386;SDS011;5748;53.102;8.456;2023-05-10T12:36:07;1.33;;;1.23;;
11386;SDS011;5748;53.102;8.456;2023-05-10T12:38:36;1.33;;;1.23;;
11386;SDS011;5748;53.102;8.456;2023-05-10T12:41:08;1.70;;;1.60;;
11386;SDS011;5748;53.102;8.456;2023-05-10T12:43:37;1.40;;;1.30;;
11386;SDS011;5748;53.102;8.456;2023-05-10T12:46:05;1.40;;;1.30;;
11386;SDS011;5748;53.102;8.456;2023-05-10T12:48:34;1.20;;;1.17;;
11386;SDS011;5748;53.102;8.456;2023-05-10T12:51:03;1.30;;;1.20;;
11386;SDS011;5748;53.102;8.456;2023-05-10T12:53:34;1.07;;;1.00;;
11386;SDS011;5748;53.102;8.456;2023-05-10T12:56:01;1.20;;;1.10;;
11386;SDS011;5748;53.102;8.456;2023-05-10T12:58:30;1.10;;;1.10;;
11386;SDS011;5748;53.102;8.456;2023-05-10T13:00:57;1.07;;;1.03;;
11386;SDS011;5748;53.102;8.456;2023-05-10T13:03:41;0.97;;;0.97;;
11386;SDS011;5748;53.102;8.456;2023-05-10T13:06:08;0.90;;;0.90;;
11386;SDS011;5748;53.102;8.456;2023-05-10T13:08:36;1.20;;;1.10;;
11386;SDS011;5748;53.102;8.456;2023-05-10T13:11:03;1.00;;;1.00;;
11386;SDS011;5748;53.102;8.456;2023-05-10T13:13:30;0.83;;;0.83;;
11386;SDS011;5748;53.102;8.456;2023-05-10T13:15:57;1.30;;;1.17;;
11386;SDS011;5748;53.102;8.456;2023-05-10T13:18:24;1.20;;;1.10;;
11386;SDS011;5748;53.102;8.456;2023-05-10T13:23:36;1.00;;;1.00;;
11386;SDS011;5748;53.102;8.456;2023-05-10T13:26:03;0.97;;;0.97;;
11386;SDS011;5748;53.102;8.456;2023-05-10T13:28:30;1.00;;;1.00;;
11386;SDS011;5748;53.102;8.456;2023-05-10T13:30:57;0.90;;;0.90;;
11386;SDS011;5748;53.102;8.456;2023-05-10T13:33:31;1.10;;;1.10;;
11386;SDS011;5748;53.102;8.456;2023-05-10T13:36:00;1.30;;;1.20;;
11386;SDS011;5748;53.102;8.456;2023-05-10T13:38:28;1.00;;;1.00;;
11386;SDS011;5748;53.102;8.456;2023-05-10T13:40:57;1.10;;;1.10;;
11386;SDS011;5748;53.102;8.456;2023-05-10T13:43:25;0.90;;;0.90;;
11386;SDS011;5748;53.102;8.456;2023-05-10T13:45:51;0.80;;;0.80;;
11386;SDS011;5748;53.102;8.456;2023-05-10T13:48:19;0.70;;;0.70;;
11386;SDS011;5748;53.102;8.456;2023-05-10T13:50:46;0.80;;;0.80;;
11386;SDS011;5748;53.102;8.456;2023-05-10T13:53:15;0.90;;;0.90;;
11386;SDS011;5748;53.102;8.456;2023-05-10T13:55:42;2.40;;;0.97;;
11386;SDS011;5748;53.102;8.456;2023-05-10T13:58:08;1.00;;;0.90;;
11386;SDS011;5748;53.102;8.456;2023-05-10T14:00:35;0.80;;;0.80;;
11386;SDS011;5748;53.102;8.456;2023-05-10T14:03:03;0.70;;;0.70;;
11386;SDS011;5748;53.102;8.456;2023-05-10T14:05:31;0.65;;;0.65;;
11386;SDS011;5748;53.102;8.456;2023-05-10T14:07:58;0.70;;;0.70;;
11386;SDS011;5748;53.102;8.456;2023-05-10T14:10:26;0.70;;;0.70;;
11386;SDS011;5748;53.102;8.456;2023-05-10T14:12:54;0.80;;;0.80;;
11386;SDS011;5748;53.102;8.456;2023-05-10T14:15:21;0.85;;;0.60;;
11386;SDS011;5748;53.102;8.456;2023-05-10T14:17:48;0.87;;;0.83;;
11386;SDS011;5748;53.102;8.456;2023-05-10T14:20:16;0.70;;;0.70;;
11386;SDS011;5748;53.102;8.456;2023-05-10T14:22:43;0.90;;;0.90;;
11386;SDS011;5748;53.102;8.456;2023-05-10T14:25:10;0.80;;;0.80;;
11386;SDS011;5748;53.102;8.456;2023-05-10T14:27:38;0.90;;;0.90;;
11386;SDS011;5748;53.102;8.456;2023-05-10T14:30:06;0.70;;;0.70;;
11386;SDS011;5748;53.102;8.456;2023-05-10T14:32:34;0.70;;;0.70;;
11386;SDS011;5748;53.102;8.456;2023-05-10T14:35:01;0.70;;;0.70;;
11386;SDS011;5748;53.102;8.456;2023-05-10T14:37:29;0.60;;;0.60;;
11386;SDS011;5748;53.102;8.456;2023-05-10T14:39:56;0.60;;;0.60;;
11386;SDS011;5748;53.102;8.456;2023-05-10T14:42:23;0.70;;;0.70;;
11386;SDS011;5748;53.102;8.456;2023-05-10T14:44:52;0.70;;;0.70;;
11386;SDS011;5748;53.102;8.456;2023-05-10T14:47:19;0.60;;;0.60;;
11386;SDS011;5748;53.102;8.456;2023-05-10T14:49:46;0.60;;;0.60;;
11386;SDS011;5748;53.102;8.456;2023-05-10T14:52:14;0.70;;;0.70;;
11386;SDS011;5748;53.102;8.456;2023-05-10T14:54:41;0.63;;;0.63;;
11386;SDS011;5748;53.102;8.456;2023-05-10T14:57:08;1.33;;;0.70;;
11386;SDS011;5748;53.102;8.456;2023-05-10T14:59:35;0.70;;;0.67;;
11386;SDS011;5748;53.102;8.456;2023-05-10T15:02:04;0.60;;;0.60;;
11386;SDS011;5748;53.102;8.456;2023-05-10T15:04:33;0.63;;;0.63;;
11386;SDS011;5748;53.102;8.456;2023-05-10T15:07:00;0.60;;;0.60;;
11386;SDS011;5748;53.102;8.456;2023-05-10T15:09:28;0.60;;;0.60;;
11386;SDS011;5748;53.102;8.456;2023-05-10T15:14:45;0.60;;;0.60;;
11386;SDS011;5748;53.102;8.456;2023-05-10T15:17:14;0.53;;;0.53;;
11386;SDS011;5748;53.102;8.456;2023-05-10T15:19:41;0.50;;;0.50;;
11386;SDS011;5748;53.102;8.456;2023-05-10T15:22:08;0.60;;;0.60;;
11386;SDS011;5748;53.102;8.456;2023-05-10T15:24:35;0.60;;;0.60;;
11386;SDS011;5748;53.102;8.456;2023-05-10T15:27:11;0.50;;;0.50;;
11386;SDS011;5748;53.102;8.456;2023-05-10T15:29:57;0.30;;;0.30;;
11386;SDS011;5748;53.102;8.456;2023-05-10T15:32:26;0.40;;;0.40;;
11386;SDS011;5748;53.102;8.456;2023-05-10T15:34:54;0.47;;;0.47;;
11386;SDS011;5748;53.102;8.456;2023-05-10T15:37:21;0.50;;;0.50;;
11386;SDS011;5748;53.102;8.456;2023-05-10T15:39:48;0.50;;;0.50;;
11386;SDS011;5748;53.102;8.456;2023-05-10T15:42:16;0.60;;;0.60;;
11386;SDS011;5748;53.102;8.456;2023-05-10T15:44:53;3.67;;;0.70;;
11386;SDS011;5748;53.102;8.456;2023-05-10T15:47:23;0.40;;;0.40;;
11386;SDS011;5748;53.102;8.456;2023-05-10T15:49:54;0.50;;;0.50;;
11386;SDS011;5748;53.102;8.456;2023-05-10T15:52:21;0.50;;;0.50;;